sensor_id;sensor_type;location;lat;lon;timestamp;P1;durP1;ratioP1;P2;durP2;ratioP2
44068;SDS011;29738;51.234;5.484;2023-02-08T00:01:10;17.08;;;8.25;;
44068;SDS011;29738;51.234;5.484;2023-02-08T00:03:37;13.88;;;7.32;;
44068;SDS011;29738;51.234;5.484;2023-02-08T00:06:04;17.42;;;8.60;;
44068;SDS011;29738;51.234;5.484;2023-02-08T00:08:30;16.15;;;7.80;;
44068;SDS011;29738;51.234;5.484;2023-02-08T00:10:56;10.75;;;6.95;;
44068;SDS011;29738;51.234;5.484;2023-02-08T00:13:22;17.52;;;7.95;;
44068;SDS011;29738;51.234;5.484;2023-02-08T00:15:50;13.63;;;8.02;;
44068;SDS011;29738;51.234;5.484;2023-02-08T00:18:17;14.65;;;7.65;;
44068;SDS011;29738;51.234;5.484;2023-02-08T00:20:43;14.13;;;7.03;;
44068;SDS011;29738;51.234;5.484;2023-02-08T00:23:09;13.05;;;6.90;;
44068;SDS011;29738;51.234;5.484;2023-02-08T00:25:36;12.65;;;6.63;;
44068;SDS011;29738;51.234;5.484;2023-02-08T00:28:02;19.70;;;7.93;;
44068;SDS011;29738;51.234;5.484;2023-02-08T00:30:28;12.75;;;6.57;;
44068;SDS011;29738;51.234;5.484;2023-02-08T00:32:54;14.40;;;7.75;;
44068;SDS011;29738;51.234;5.484;2023-02-08T00:35:20;14.00;;;6.97;;
44068;SDS011;29738;51.234;5.484;2023-02-08T00:37:45;20.02;;;9.15;;
44068;SDS011;29738;51.234;5.484;2023-02-08T00:40:11;12.35;;;6.45;;
44068;SDS011;29738;51.234;5.484;2023-02-08T00:42:37;19.65;;;9.15;;
44068;SDS011;29738;51.234;5.484;2023-02-08T00:45:03;14.52;;;7.40;;
44068;SDS011;29738;51.234;5.484;2023-02-08T00:47:29;14.13;;;7.55;;
44068;SDS011;29738;51.234;5.484;2023-02-08T00:49:54;12.00;;;6.78;;
44068;SDS011;29738;51.234;5.484;2023-02-08T00:52:21;12.02;;;7.25;;
44068;SDS011;29738;51.234;5.484;2023-02-08T00:54:46;11.02;;;7.13;;
44068;SDS011;29738;51.234;5.484;2023-02-08T00:57:12;10.43;;;6.53;;
44068;SDS011;29738;51.234;5.484;2023-02-08T00:59:38;15.70;;;8.07;;
44068;SDS011;29738;51.234;5.484;2023-02-08T01:02:04;12.05;;;6.72;;
44068;SDS011;29738;51.234;5.484;2023-02-08T01:04:30;17.45;;;8.48;;
44068;SDS011;29738;51.234;5.484;2023-02-08T01:06:56;13.30;;;6.65;;
44068;SDS011;29738;51.234;5.484;2023-02-08T01:09:22;17.77;;;7.55;;
44068;SDS011;29738;51.234;5.484;2023-02-08T01:11:48;13.85;;;6.90;;
44068;SDS011;29738;51.234;5.484;2023-02-08T01:14:14;14.15;;;7.95;;
44068;SDS011;29738;51.234;5.484;2023-02-08T01:16:40;10.63;;;6.75;;
44068;SDS011;29738;51.234;5.484;2023-02-08T01:19:06;11.98;;;6.88;;
44068;SDS011;29738;51.234;5.484;2023-02-08T01:21:33;12.57;;;5.97;;
44068;SDS011;29738;51.234;5.484;2023-02-08T01:24:01;11.30;;;6.90;;
44068;SDS011;29738;51.234;5.484;2023-02-08T01:26:27;13.90;;;7.07;;
44068;SDS011;29738;51.234;5.484;2023-02-08T01:28:53;14.77;;;6.97;;
44068;SDS011;29738;51.234;5.484;2023-02-08T01:31:24;12.65;;;7.20;;
44068;SDS011;29738;51.234;5.484;2023-02-08T01:33:54;11.88;;;5.85;;
44068;SDS011;29738;51.234;5.484;2023-02-08T01:36:21;11.93;;;6.10;;
44068;SDS011;29738;51.234;5.484;2023-02-08T01:38:47;12.88;;;6.32;;
44068;SDS011;29738;51.234;5.484;2023-02-08T01:41:15;12.23;;;7.82;;
44068;SDS011;29738;51.234;5.484;2023-02-08T01:46:40;16.77;;;9.60;;
44068;SDS011;29738;51.234;5.484;2023-02-08T01:49:11;24.80;;;12.75;;
44068;SDS011;29738;51.234;5.484;2023-02-08T01:51:47;14.80;;;8.75;;
44068;SDS011;29738;51.234;5.484;2023-02-08T01:54:17;10.48;;;5.65;;
44068;SDS011;29738;51.234;5.484;2023-02-08T01:56:45;10.55;;;7.25;;
44068;SDS011;29738;51.234;5.484;2023-02-08T01:59:13;14.10;;;5.95;;
44068;SDS011;29738;51.234;5.484;2023-02-08T02:01:50;12.98;;;6.43;;
44068;SDS011;29738;51.234;5.484;2023-02-08T02:04:19;12.13;;;6.72;;
44068;SDS011;29738;51.234;5.484;2023-02-08T02:06:47;13.07;;;6.63;;
44068;SDS011;29738;51.234;5.484;2023-02-08T02:12:13;10.15;;;6.50;;
44068;SDS011;29738;51.234;5.484;2023-02-08T02:14:40;11.07;;;6.10;;
44068;SDS011;29738;51.234;5.484;2023-02-08T02:17:06;11.25;;;6.43;;
44068;SDS011;29738;51.234;5.484;2023-02-08T02:27:57;10.57;;;5.18;;
44068;SDS011;29738;51.234;5.484;2023-02-08T02:30:47;11.38;;;5.00;;
44068;SDS011;29738;51.234;5.484;2023-02-08T02:45:14;12.38;;;5.85;;
44068;SDS011;29738;51.234;5.484;2023-02-08T02:48:02;9.98;;;5.80;;
44068;SDS011;29738;51.234;5.484;2023-02-08T02:50:41;6.75;;;4.07;;
44068;SDS011;29738;51.234;5.484;2023-02-08T02:53:16;9.45;;;5.68;;
44068;SDS011;29738;51.234;5.484;2023-02-08T02:55:46;10.52;;;5.57;;
44068;SDS011;29738;51.234;5.484;2023-02-08T02:58:41;7.97;;;4.85;;
44068;SDS011;29738;51.234;5.484;2023-02-08T03:01:09;14.73;;;7.00;;
44068;SDS011;29738;51.234;5.484;2023-02-08T03:03:35;12.73;;;5.65;;
44068;SDS011;29738;51.234;5.484;2023-02-08T03:06:05;12.07;;;7.00;;
44068;SDS011;29738;51.234;5.484;2023-02-08T03:11:25;10.07;;;5.47;;
44068;SDS011;29738;51.234;5.484;2023-02-08T03:19:31;7.30;;;4.55;;
44068;SDS011;29738;51.234;5.484;2023-02-08T03:22:11;12.25;;;6.20;;
44068;SDS011;29738;51.234;5.484;2023-02-08T03:24:53;9.98;;;6.35;;
44068;SDS011;29738;51.234;5.484;2023-02-08T03:30:13;6.50;;;4.18;;
44068;SDS011;29738;51.234;5.484;2023-02-08T03:32:47;6.53;;;4.28;;
44068;SDS011;29738;51.234;5.484;2023-02-08T03:35:22;9.52;;;4.47;;
44068;SDS011;29738;51.234;5.484;2023-02-08T03:37:57;8.52;;;5.68;;
44068;SDS011;29738;51.234;5.484;2023-02-08T03:40:38;8.48;;;5.07;;
44068;SDS011;29738;51.234;5.484;2023-02-08T03:43:10;11.32;;;5.40;;
44068;SDS011;29738;51.234;5.484;2023-02-08T03:45:48;11.80;;;6.07;;
44068;SDS011;29738;51.234;5.484;2023-02-08T03:48:18;11.25;;;5.82;;
44068;SDS011;29738;51.234;5.484;2023-02-08T03:50:48;9.20;;;4.80;;
44068;SDS011;29738;51.234;5.484;2023-02-08T03:53:18;8.45;;;4.60;;
44068;SDS011;29738;51.234;5.484;2023-02-08T03:55:46;14.40;;;5.95;;
44068;SDS011;29738;51.234;5.484;2023-02-08T03:58:18;12.27;;;4.82;;
44068;SDS011;29738;51.234;5.484;2023-02-08T04:00:48;10.90;;;5.57;;
44068;SDS011;29738;51.234;5.484;2023-02-08T04:03:21;11.15;;;5.78;;
44068;SDS011;29738;51.234;5.484;2023-02-08T04:05:50;9.57;;;6.15;;
44068;SDS011;29738;51.234;5.484;2023-02-08T04:08:16;8.30;;;5.22;;
44068;SDS011;29738;51.234;5.484;2023-02-08T04:10:41;11.57;;;6.53;;
44068;SDS011;29738;51.234;5.484;2023-02-08T04:13:07;10.65;;;5.13;;
44068;SDS011;29738;51.234;5.484;2023-02-08T04:15:33;10.73;;;5.85;;
44068;SDS011;29738;51.234;5.484;2023-02-08T04:17:59;8.77;;;4.68;;
44068;SDS011;29738;51.234;5.484;2023-02-08T04:20:24;13.13;;;6.32;;
44068;SDS011;29738;51.234;5.484;2023-02-08T04:22:50;13.40;;;4.93;;
44068;SDS011;29738;51.234;5.484;2023-02-08T04:25:16;12.43;;;6.22;;
44068;SDS011;29738;51.234;5.484;2023-02-08T04:27:42;10.85;;;7.15;;
44068;SDS011;29738;51.234;5.484;2023-02-08T04:30:08;8.65;;;5.63;;
44068;SDS011;29738;51.234;5.484;2023-02-08T04:32:35;10.77;;;5.38;;
44068;SDS011;29738;51.234;5.484;2023-02-08T04:35:00;9.43;;;5.93;;
44068;SDS011;29738;51.234;5.484;2023-02-08T04:37:26;7.07;;;4.57;;
44068;SDS011;29738;51.234;5.484;2023-02-08T04:39:52;6.45;;;4.30;;
44068;SDS011;29738;51.234;5.484;2023-02-08T04:42:18;8.00;;;5.75;;
44068;SDS011;29738;51.234;5.484;2023-02-08T04:44:44;8.60;;;4.93;;
44068;SDS011;29738;51.234;5.484;2023-02-08T04:47:09;9.45;;;4.93;;
44068;SDS011;29738;51.234;5.484;2023-02-08T04:49:35;11.88;;;5.95;;
44068;SDS011;29738;51.234;5.484;2023-02-08T04:52:01;8.90;;;4.80;;
44068;SDS011;29738;51.234;5.484;2023-02-08T04:54:27;8.27;;;4.57;;
44068;SDS011;29738;51.234;5.484;2023-02-08T04:56:53;9.10;;;5.53;;
44068;SDS011;29738;51.234;5.484;2023-02-08T04:59:19;10.57;;;5.32;;
44068;SDS011;29738;51.234;5.484;2023-02-08T05:01:44;9.00;;;6.72;;
44068;SDS011;29738;51.234;5.484;2023-02-08T05:04:10;11.68;;;5.97;;
44068;SDS011;29738;51.234;5.484;2023-02-08T05:06:36;14.02;;;6.45;;
44068;SDS011;29738;51.234;5.484;2023-02-08T05:09:02;10.02;;;5.80;;
44068;SDS011;29738;51.234;5.484;2023-02-08T05:11:30;10.15;;;4.93;;
44068;SDS011;29738;51.234;5.484;2023-02-08T05:13:56;6.85;;;4.03;;
44068;SDS011;29738;51.234;5.484;2023-02-08T05:16:22;8.00;;;4.15;;
44068;SDS011;29738;51.234;5.484;2023-02-08T05:18:48;10.23;;;6.15;;
44068;SDS011;29738;51.234;5.484;2023-02-08T05:21:13;6.20;;;3.85;;
44068;SDS011;29738;51.234;5.484;2023-02-08T05:23:39;11.80;;;5.00;;
44068;SDS011;29738;51.234;5.484;2023-02-08T05:26:05;8.60;;;5.57;;
44068;SDS011;29738;51.234;5.484;2023-02-08T05:28:33;8.00;;;5.85;;
44068;SDS011;29738;51.234;5.484;2023-02-08T05:31:06;8.70;;;3.72;;
44068;SDS011;29738;51.234;5.484;2023-02-08T05:33:33;9.60;;;5.05;;
44068;SDS011;29738;51.234;5.484;2023-02-08T05:35:59;12.00;;;5.72;;
44068;SDS011;29738;51.234;5.484;2023-02-08T05:38:25;10.32;;;4.60;;
44068;SDS011;29738;51.234;5.484;2023-02-08T05:40:51;10.95;;;5.15;;
44068;SDS011;29738;51.234;5.484;2023-02-08T05:43:16;7.93;;;4.65;;
44068;SDS011;29738;51.234;5.484;2023-02-08T05:45:42;9.60;;;5.05;;
44068;SDS011;29738;51.234;5.484;2023-02-08T05:48:08;11.35;;;5.45;;
44068;SDS011;29738;51.234;5.484;2023-02-08T05:50:34;7.47;;;4.93;;
44068;SDS011;29738;51.234;5.484;2023-02-08T05:53:00;10.77;;;6.05;;
44068;SDS011;29738;51.234;5.484;2023-02-08T05:55:26;10.52;;;4.60;;
44068;SDS011;29738;51.234;5.484;2023-02-08T05:57:52;8.85;;;5.55;;
44068;SDS011;29738;51.234;5.484;2023-02-08T06:00:18;11.82;;;6.07;;
44068;SDS011;29738;51.234;5.484;2023-02-08T06:02:44;10.07;;;4.35;;
44068;SDS011;29738;51.234;5.484;2023-02-08T06:05:10;9.63;;;4.35;;
44068;SDS011;29738;51.234;5.484;2023-02-08T06:07:36;11.85;;;4.70;;
44068;SDS011;29738;51.234;5.484;2023-02-08T06:10:02;8.57;;;4.93;;
44068;SDS011;29738;51.234;5.484;2023-02-08T06:12:28;8.27;;;4.65;;
44068;SDS011;29738;51.234;5.484;2023-02-08T06:14:54;5.90;;;4.05;;
44068;SDS011;29738;51.234;5.484;2023-02-08T06:17:20;9.93;;;5.65;;
44068;SDS011;29738;51.234;5.484;2023-02-08T06:19:46;8.18;;;5.32;;
44068;SDS011;29738;51.234;5.484;2023-02-08T06:22:11;6.88;;;4.10;;
44068;SDS011;29738;51.234;5.484;2023-02-08T06:24:37;10.57;;;4.38;;
44068;SDS011;29738;51.234;5.484;2023-02-08T06:27:03;11.65;;;5.20;;
44068;SDS011;29738;51.234;5.484;2023-02-08T06:29:29;8.30;;;4.45;;
44068;SDS011;29738;51.234;5.484;2023-02-08T06:31:54;11.57;;;5.78;;
44068;SDS011;29738;51.234;5.484;2023-02-08T06:34:20;11.52;;;5.72;;
44068;SDS011;29738;51.234;5.484;2023-02-08T06:36:46;8.60;;;4.43;;
44068;SDS011;29738;51.234;5.484;2023-02-08T06:39:11;8.52;;;4.80;;
44068;SDS011;29738;51.234;5.484;2023-02-08T06:41:37;7.82;;;5.47;;
44068;SDS011;29738;51.234;5.484;2023-02-08T06:44:03;9.18;;;4.60;;
44068;SDS011;29738;51.234;5.484;2023-02-08T06:46:29;10.15;;;6.22;;
44068;SDS011;29738;51.234;5.484;2023-02-08T06:48:55;8.52;;;5.38;;
44068;SDS011;29738;51.234;5.484;2023-02-08T06:51:22;7.10;;;4.65;;
44068;SDS011;29738;51.234;5.484;2023-02-08T06:53:48;6.13;;;3.97;;
44068;SDS011;29738;51.234;5.484;2023-02-08T06:56:13;7.55;;;4.68;;
44068;SDS011;29738;51.234;5.484;2023-02-08T06:58:39;10.15;;;5.18;;
44068;SDS011;29738;51.234;5.484;2023-02-08T07:01:05;7.93;;;4.55;;
44068;SDS011;29738;51.234;5.484;2023-02-08T07:03:31;8.40;;;4.45;;
44068;SDS011;29738;51.234;5.484;2023-02-08T07:05:56;11.07;;;5.35;;
44068;SDS011;29738;51.234;5.484;2023-02-08T07:08:22;10.55;;;5.78;;
44068;SDS011;29738;51.234;5.484;2023-02-08T07:10:48;8.15;;;5.07;;
44068;SDS011;29738;51.234;5.484;2023-02-08T07:13:14;7.22;;;4.03;;
44068;SDS011;29738;51.234;5.484;2023-02-08T07:15:39;8.38;;;4.38;;
44068;SDS011;29738;51.234;5.484;2023-02-08T07:18:05;10.93;;;5.78;;
44068;SDS011;29738;51.234;5.484;2023-02-08T07:20:31;7.47;;;4.97;;
44068;SDS011;29738;51.234;5.484;2023-02-08T07:22:57;16.85;;;5.85;;
44068;SDS011;29738;51.234;5.484;2023-02-08T07:25:23;9.05;;;5.18;;
44068;SDS011;29738;51.234;5.484;2023-02-08T07:27:49;9.10;;;6.00;;
44068;SDS011;29738;51.234;5.484;2023-02-08T07:30:15;11.15;;;5.45;;
44068;SDS011;29738;51.234;5.484;2023-02-08T07:32:41;7.65;;;4.45;;
44068;SDS011;29738;51.234;5.484;2023-02-08T07:35:06;12.05;;;5.38;;
44068;SDS011;29738;51.234;5.484;2023-02-08T07:37:32;10.68;;;6.07;;
44068;SDS011;29738;51.234;5.484;2023-02-08T07:39:58;10.02;;;5.07;;
44068;SDS011;29738;51.234;5.484;2023-02-08T07:42:24;8.35;;;4.72;;
44068;SDS011;29738;51.234;5.484;2023-02-08T07:44:49;13.95;;;7.82;;
44068;SDS011;29738;51.234;5.484;2023-02-08T07:47:15;11.43;;;6.38;;
44068;SDS011;29738;51.234;5.484;2023-02-08T07:49:41;9.68;;;5.22;;
44068;SDS011;29738;51.234;5.484;2023-02-08T07:52:07;9.60;;;5.30;;
44068;SDS011;29738;51.234;5.484;2023-02-08T07:54:32;11.75;;;7.22;;
44068;SDS011;29738;51.234;5.484;2023-02-08T07:56:58;14.20;;;7.57;;
44068;SDS011;29738;51.234;5.484;2023-02-08T07:59:24;11.05;;;6.80;;
44068;SDS011;29738;51.234;5.484;2023-02-08T08:01:50;13.13;;;6.60;;
44068;SDS011;29738;51.234;5.484;2023-02-08T08:04:16;10.63;;;7.07;;
44068;SDS011;29738;51.234;5.484;2023-02-08T08:06:43;11.57;;;6.03;;
44068;SDS011;29738;51.234;5.484;2023-02-08T08:09:10;8.50;;;4.68;;
44068;SDS011;29738;51.234;5.484;2023-02-08T08:11:36;9.73;;;6.00;;
44068;SDS011;29738;51.234;5.484;2023-02-08T08:14:02;11.02;;;6.35;;
44068;SDS011;29738;51.234;5.484;2023-02-08T08:16:28;11.00;;;5.80;;
44068;SDS011;29738;51.234;5.484;2023-02-08T08:18:53;12.57;;;6.00;;
44068;SDS011;29738;51.234;5.484;2023-02-08T08:21:19;9.15;;;5.45;;
44068;SDS011;29738;51.234;5.484;2023-02-08T08:23:45;8.95;;;4.88;;
44068;SDS011;29738;51.234;5.484;2023-02-08T08:26:12;11.30;;;6.07;;
44068;SDS011;29738;51.234;5.484;2023-02-08T08:28:40;13.88;;;7.05;;
44068;SDS011;29738;51.234;5.484;2023-02-08T08:31:10;9.52;;;5.63;;
44068;SDS011;29738;51.234;5.484;2023-02-08T08:33:37;8.32;;;4.55;;
44068;SDS011;29738;51.234;5.484;2023-02-08T08:36:03;10.95;;;5.90;;
44068;SDS011;29738;51.234;5.484;2023-02-08T08:38:29;7.97;;;4.97;;
44068;SDS011;29738;51.234;5.484;2023-02-08T08:40:55;11.40;;;5.78;;
44068;SDS011;29738;51.234;5.484;2023-02-08T08:43:20;13.23;;;6.75;;
44068;SDS011;29738;51.234;5.484;2023-02-08T08:45:46;11.75;;;5.43;;
44068;SDS011;29738;51.234;5.484;2023-02-08T08:48:12;11.38;;;6.40;;
44068;SDS011;29738;51.234;5.484;2023-02-08T08:50:38;12.93;;;7.78;;
44068;SDS011;29738;51.234;5.484;2023-02-08T08:53:03;8.70;;;5.43;;
44068;SDS011;29738;51.234;5.484;2023-02-08T08:55:29;12.10;;;7.28;;
44068;SDS011;29738;51.234;5.484;2023-02-08T08:57:55;12.77;;;6.60;;
44068;SDS011;29738;51.234;5.484;2023-02-08T09:00:21;13.15;;;6.47;;
44068;SDS011;29738;51.234;5.484;2023-02-08T09:02:47;14.45;;;6.97;;
44068;SDS011;29738;51.234;5.484;2023-02-08T09:05:13;13.88;;;6.70;;
44068;SDS011;29738;51.234;5.484;2023-02-08T09:07:39;17.88;;;8.13;;
44068;SDS011;29738;51.234;5.484;2023-02-08T09:10:04;9.32;;;6.30;;
44068;SDS011;29738;51.234;5.484;2023-02-08T09:12:30;11.20;;;6.35;;
44068;SDS011;29738;51.234;5.484;2023-02-08T09:14:56;11.90;;;6.85;;
44068;SDS011;29738;51.234;5.484;2023-02-08T09:17:22;16.05;;;6.03;;
44068;SDS011;29738;51.234;5.484;2023-02-08T09:19:48;11.02;;;6.50;;
44068;SDS011;29738;51.234;5.484;2023-02-08T09:22:13;9.27;;;5.40;;
44068;SDS011;29738;51.234;5.484;2023-02-08T09:24:39;12.75;;;6.82;;
44068;SDS011;29738;51.234;5.484;2023-02-08T09:27:05;12.82;;;7.13;;
44068;SDS011;29738;51.234;5.484;2023-02-08T09:29:31;11.23;;;6.00;;
44068;SDS011;29738;51.234;5.484;2023-02-08T09:31:57;11.35;;;5.68;;
44068;SDS011;29738;51.234;5.484;2023-02-08T09:34:23;10.88;;;5.57;;
44068;SDS011;29738;51.234;5.484;2023-02-08T09:36:49;13.93;;;6.25;;
44068;SDS011;29738;51.234;5.484;2023-02-08T09:39:16;13.63;;;6.72;;
44068;SDS011;29738;51.234;5.484;2023-02-08T09:44:33;16.27;;;7.07;;
44068;SDS011;29738;51.234;5.484;2023-02-08T09:47:25;15.13;;;7.18;;
44068;SDS011;29738;51.234;5.484;2023-02-08T09:52:28;9.18;;;5.25;;
44068;SDS011;29738;51.234;5.484;2023-02-08T09:55:18;12.77;;;6.75;;
44068;SDS011;29738;51.234;5.484;2023-02-08T09:57:49;11.68;;;6.63;;
44068;SDS011;29738;51.234;5.484;2023-02-08T10:00:24;10.32;;;6.15;;
44068;SDS011;29738;51.234;5.484;2023-02-08T10:02:58;12.52;;;6.43;;
44068;SDS011;29738;51.234;5.484;2023-02-08T10:05:25;11.57;;;6.10;;
44068;SDS011;29738;51.234;5.484;2023-02-08T10:07:53;12.70;;;6.72;;
44068;SDS011;29738;51.234;5.484;2023-02-08T10:10:23;10.48;;;5.97;;
44068;SDS011;29738;51.234;5.484;2023-02-08T10:26:48;9.38;;;5.63;;
44068;SDS011;29738;51.234;5.484;2023-02-08T10:32:12;8.23;;;4.57;;
44068;SDS011;29738;51.234;5.484;2023-02-08T10:37:20;10.82;;;5.28;;
44068;SDS011;29738;51.234;5.484;2023-02-08T10:40:23;8.90;;;4.57;;
44068;SDS011;29738;51.234;5.484;2023-02-08T10:42:50;9.35;;;4.57;;
44068;SDS011;29738;51.234;5.484;2023-02-08T10:48:16;8.77;;;4.30;;
44068;SDS011;29738;51.234;5.484;2023-02-08T10:50:53;8.02;;;4.13;;
44068;SDS011;29738;51.234;5.484;2023-02-08T10:53:19;10.10;;;4.00;;
44068;SDS011;29738;51.234;5.484;2023-02-08T10:55:45;8.25;;;4.07;;
44068;SDS011;29738;51.234;5.484;2023-02-08T10:58:13;9.05;;;4.25;;
44068;SDS011;29738;51.234;5.484;2023-02-08T11:00:42;8.18;;;4.93;;
44068;SDS011;29738;51.234;5.484;2023-02-08T11:03:15;7.57;;;4.65;;
44068;SDS011;29738;51.234;5.484;2023-02-08T11:05:49;8.75;;;4.80;;
44068;SDS011;29738;51.234;5.484;2023-02-08T11:08:17;9.98;;;5.50;;
44068;SDS011;29738;51.234;5.484;2023-02-08T11:13:23;9.77;;;5.32;;
44068;SDS011;29738;51.234;5.484;2023-02-08T11:15:56;8.65;;;4.78;;
44068;SDS011;29738;51.234;5.484;2023-02-08T11:21:01;10.55;;;6.00;;
44068;SDS011;29738;51.234;5.484;2023-02-08T11:26:38;8.80;;;4.60;;
44068;SDS011;29738;51.234;5.484;2023-02-08T11:28:57;12.10;;;5.63;;
44068;SDS011;29738;51.234;5.484;2023-02-08T11:31:28;8.82;;;3.95;;
44068;SDS011;29738;51.234;5.484;2023-02-08T11:34:00;10.52;;;4.75;;
44068;SDS011;29738;51.234;5.484;2023-02-08T11:36:30;14.10;;;5.28;;
44068;SDS011;29738;51.234;5.484;2023-02-08T11:38:59;11.23;;;4.93;;
44068;SDS011;29738;51.234;5.484;2023-02-08T11:41:41;8.63;;;4.13;;
44068;SDS011;29738;51.234;5.484;2023-02-08T11:44:11;8.85;;;5.20;;
44068;SDS011;29738;51.234;5.484;2023-02-08T11:46:44;11.52;;;5.47;;
44068;SDS011;29738;51.234;5.484;2023-02-08T11:49:50;13.52;;;7.20;;
44068;SDS011;29738;51.234;5.484;2023-02-08T11:52:26;13.57;;;7.32;;
44068;SDS011;29738;51.234;5.484;2023-02-08T11:54:54;15.07;;;5.93;;
44068;SDS011;29738;51.234;5.484;2023-02-08T11:57:59;12.00;;;6.57;;
44068;SDS011;29738;51.234;5.484;2023-02-08T12:00:30;13.55;;;7.65;;
44068;SDS011;29738;51.234;5.484;2023-02-08T12:03:10;15.57;;;6.43;;
44068;SDS011;29738;51.234;5.484;2023-02-08T12:11:42;7.45;;;3.67;;
44068;SDS011;29738;51.234;5.484;2023-02-08T12:14:16;8.05;;;4.53;;
44068;SDS011;29738;51.234;5.484;2023-02-08T12:17:06;9.60;;;4.65;;
44068;SDS011;29738;51.234;5.484;2023-02-08T12:22:29;7.78;;;4.32;;
44068;SDS011;29738;51.234;5.484;2023-02-08T12:27:44;12.02;;;4.20;;
44068;SDS011;29738;51.234;5.484;2023-02-08T12:36:17;9.27;;;4.25;;
44068;SDS011;29738;51.234;5.484;2023-02-08T12:38:57;10.18;;;4.38;;
44068;SDS011;29738;51.234;5.484;2023-02-08T12:42:13;9.88;;;4.53;;
44068;SDS011;29738;51.234;5.484;2023-02-08T12:50:32;10.65;;;4.90;;
44068;SDS011;29738;51.234;5.484;2023-02-08T12:53:19;8.23;;;4.57;;
44068;SDS011;29738;51.234;5.484;2023-02-08T12:55:50;9.98;;;5.35;;
44068;SDS011;29738;51.234;5.484;2023-02-08T13:00:47;10.75;;;5.53;;
44068;SDS011;29738;51.234;5.484;2023-02-08T13:06:05;7.25;;;4.03;;
44068;SDS011;29738;51.234;5.484;2023-02-08T13:11:39;7.93;;;4.03;;
44068;SDS011;29738;51.234;5.484;2023-02-08T13:14:14;8.35;;;3.85;;
44068;SDS011;29738;51.234;5.484;2023-02-08T13:17:00;7.55;;;4.05;;
44068;SDS011;29738;51.234;5.484;2023-02-08T13:19:41;9.02;;;4.95;;
44068;SDS011;29738;51.234;5.484;2023-02-08T13:22:30;7.00;;;3.30;;
44068;SDS011;29738;51.234;5.484;2023-02-08T13:24:59;5.97;;;2.92;;
44068;SDS011;29738;51.234;5.484;2023-02-08T13:27:26;13.77;;;3.50;;
44068;SDS011;29738;51.234;5.484;2023-02-08T13:29:52;7.90;;;3.67;;
44068;SDS011;29738;51.234;5.484;2023-02-08T13:32:25;7.80;;;3.85;;
44068;SDS011;29738;51.234;5.484;2023-02-08T13:37:28;6.88;;;3.10;;
44068;SDS011;29738;51.234;5.484;2023-02-08T13:40:03;6.00;;;2.50;;
44068;SDS011;29738;51.234;5.484;2023-02-08T13:45:29;6.13;;;2.70;;
44068;SDS011;29738;51.234;5.484;2023-02-08T13:48:00;5.25;;;2.25;;
44068;SDS011;29738;51.234;5.484;2023-02-08T13:52:59;8.00;;;2.70;;
44068;SDS011;29738;51.234;5.484;2023-02-08T14:00:27;6.70;;;3.13;;
44068;SDS011;29738;51.234;5.484;2023-02-08T14:02:57;7.45;;;2.63;;
44068;SDS011;29738;51.234;5.484;2023-02-08T14:08:25;4.95;;;2.55;;
44068;SDS011;29738;51.234;5.484;2023-02-08T14:14:20;6.25;;;2.80;;
44068;SDS011;29738;51.234;5.484;2023-02-08T14:17:24;6.40;;;2.70;;
44068;SDS011;29738;51.234;5.484;2023-02-08T14:19:43;5.95;;;2.80;;
44068;SDS011;29738;51.234;5.484;2023-02-08T14:24:37;7.38;;;2.97;;
44068;SDS011;29738;51.234;5.484;2023-02-08T14:29:58;8.45;;;3.83;;
44068;SDS011;29738;51.234;5.484;2023-02-08T14:32:37;8.63;;;4.53;;
44068;SDS011;29738;51.234;5.484;2023-02-08T14:35:26;9.00;;;3.80;;
44068;SDS011;29738;51.234;5.484;2023-02-08T14:43:30;7.57;;;3.75;;
44068;SDS011;29738;51.234;5.484;2023-02-08T14:49:04;7.63;;;3.35;;
44068;SDS011;29738;51.234;5.484;2023-02-08T14:51:43;5.55;;;2.78;;
44068;SDS011;29738;51.234;5.484;2023-02-08T14:54:24;6.05;;;2.65;;
44068;SDS011;29738;51.234;5.484;2023-02-08T14:57:00;9.20;;;3.42;;
44068;SDS011;29738;51.234;5.484;2023-02-08T14:59:50;6.28;;;2.75;;
44068;SDS011;29738;51.234;5.484;2023-02-08T15:02:21;6.82;;;3.35;;
44068;SDS011;29738;51.234;5.484;2023-02-08T15:04:50;8.85;;;3.58;;
44068;SDS011;29738;51.234;5.484;2023-02-08T15:07:30;6.85;;;3.42;;
44068;SDS011;29738;51.234;5.484;2023-02-08T15:10:09;8.73;;;3.90;;
44068;SDS011;29738;51.234;5.484;2023-02-08T15:12:37;7.13;;;2.72;;
44068;SDS011;29738;51.234;5.484;2023-02-08T15:15:05;7.10;;;3.10;;
44068;SDS011;29738;51.234;5.484;2023-02-08T15:17:45;7.22;;;3.20;;
44068;SDS011;29738;51.234;5.484;2023-02-08T15:20:27;5.70;;;2.40;;
44068;SDS011;29738;51.234;5.484;2023-02-08T15:22:59;9.73;;;3.25;;
44068;SDS011;29738;51.234;5.484;2023-02-08T15:25:27;6.68;;;3.03;;
44068;SDS011;29738;51.234;5.484;2023-02-08T15:27:59;6.93;;;3.28;;
44068;SDS011;29738;51.234;5.484;2023-02-08T15:30:44;7.53;;;2.80;;
44068;SDS011;29738;51.234;5.484;2023-02-08T15:33:22;6.65;;;3.17;;
44068;SDS011;29738;51.234;5.484;2023-02-08T15:35:57;6.80;;;2.70;;
44068;SDS011;29738;51.234;5.484;2023-02-08T15:38:24;6.57;;;2.75;;
44068;SDS011;29738;51.234;5.484;2023-02-08T15:41:25;6.68;;;2.63;;
44068;SDS011;29738;51.234;5.484;2023-02-08T15:44:00;5.83;;;2.60;;
44068;SDS011;29738;51.234;5.484;2023-02-08T15:46:41;10.10;;;2.80;;
44068;SDS011;29738;51.234;5.484;2023-02-08T15:49:14;7.78;;;2.97;;
44068;SDS011;29738;51.234;5.484;2023-02-08T15:51:52;8.30;;;3.58;;
44068;SDS011;29738;51.234;5.484;2023-02-08T15:54:21;7.40;;;3.30;;
44068;SDS011;29738;51.234;5.484;2023-02-08T15:56:58;9.82;;;3.45;;
44068;SDS011;29738;51.234;5.484;2023-02-08T15:59:34;6.90;;;3.45;;
44068;SDS011;29738;51.234;5.484;2023-02-08T16:02:48;8.00;;;3.20;;
44068;SDS011;29738;51.234;5.484;2023-02-08T16:04:48;8.18;;;3.13;;
44068;SDS011;29738;51.234;5.484;2023-02-08T16:10:01;6.78;;;3.00;;
44068;SDS011;29738;51.234;5.484;2023-02-08T16:12:28;8.43;;;4.38;;
44068;SDS011;29738;51.234;5.484;2023-02-08T16:14:54;11.02;;;3.92;;
44068;SDS011;29738;51.234;5.484;2023-02-08T16:20:26;9.05;;;3.70;;
44068;SDS011;29738;51.234;5.484;2023-02-08T16:23:17;8.32;;;4.10;;
44068;SDS011;29738;51.234;5.484;2023-02-08T16:25:48;7.95;;;4.30;;
44068;SDS011;29738;51.234;5.484;2023-02-08T16:28:30;9.40;;;4.88;;
44068;SDS011;29738;51.234;5.484;2023-02-08T16:30:58;9.05;;;4.82;;
44068;SDS011;29738;51.234;5.484;2023-02-08T16:33:26;8.57;;;4.68;;
44068;SDS011;29738;51.234;5.484;2023-02-08T16:35:54;9.20;;;4.50;;
44068;SDS011;29738;51.234;5.484;2023-02-08T16:38:26;8.05;;;4.05;;
44068;SDS011;29738;51.234;5.484;2023-02-08T16:40:59;7.40;;;3.83;;
44068;SDS011;29738;51.234;5.484;2023-02-08T16:43:36;8.00;;;4.05;;
44068;SDS011;29738;51.234;5.484;2023-02-08T16:48:37;7.32;;;3.40;;
44068;SDS011;29738;51.234;5.484;2023-02-08T16:51:14;6.85;;;3.70;;
44068;SDS011;29738;51.234;5.484;2023-02-08T16:53:46;8.25;;;4.13;;
44068;SDS011;29738;51.234;5.484;2023-02-08T16:56:13;8.55;;;4.50;;
44068;SDS011;29738;51.234;5.484;2023-02-08T16:58:39;8.68;;;4.15;;
44068;SDS011;29738;51.234;5.484;2023-02-08T17:01:05;7.10;;;3.30;;
44068;SDS011;29738;51.234;5.484;2023-02-08T17:03:33;7.72;;;3.75;;
44068;SDS011;29738;51.234;5.484;2023-02-08T17:06:02;9.32;;;3.70;;
44068;SDS011;29738;51.234;5.484;2023-02-08T17:08:28;7.50;;;3.72;;
44068;SDS011;29738;51.234;5.484;2023-02-08T17:10:54;8.45;;;3.88;;
44068;SDS011;29738;51.234;5.484;2023-02-08T17:13:22;8.68;;;4.57;;
44068;SDS011;29738;51.234;5.484;2023-02-08T17:15:51;9.55;;;4.30;;
44068;SDS011;29738;51.234;5.484;2023-02-08T17:18:17;8.45;;;3.72;;
44068;SDS011;29738;51.234;5.484;2023-02-08T17:20:44;8.57;;;3.90;;
44068;SDS011;29738;51.234;5.484;2023-02-08T17:23:11;9.57;;;5.13;;